Time;durP1;ratioP1;P1;durP2;ratioP2;P2;SDS_P1;SDS_P2;PMS_P1;PMS_P2;Temp;Humidity;BMP_temperature;BMP_pressure;BME280_temperature;BME280_humidity;BME280_pressure;Samples;Min_cycle;Max_cycle;Signal;HPM_P1;HPM_P2
2022/05/23 00:00:01;;;;;;;9.43;4.28;;;17.00;99.90;;;;;;5027200;28;20468;-77
2022/05/23 00:02:27;;;;;;;4.80;3.55;;;17.00;99.90;;;;;;5029346;28;20033;-78
2022/05/23 00:04:53;;;;;;;5.80;3.60;;;17.00;99.90;;;;;;5026930;28;20052;-76
2022/05/23 00:07:34;;;;;;;5.53;3.63;;;17.00;99.90;;;;;;5027521;28;20022;-76
2022/05/23 00:10:00;;;;;;;7.75;3.95;;;17.00;99.90;;;;;;5026528;28;20025;-78
2022/05/23 00:12:26;;;;;;;6.75;3.80;;;17.00;99.90;;;;;;5028725;28;20481;-78
2022/05/23 00:14:52;;;;;;;7.63;4.00;;;16.90;99.90;;;;;;5027730;28;20041;-76
2022/05/23 00:17:20;;;;;;;6.22;4.10;;;16.70;99.90;;;;;;5028084;28;20033;-77
2022/05/23 00:19:46;;;;;;;4.25;3.85;;;16.60;99.90;;;;;;5010635;28;20614;-78
2022/05/23 00:22:13;;;;;;;4.57;3.50;;;16.40;99.90;;;;;;5027276;28;20033;-76
2022/05/23 00:24:41;;;;;;;8.95;4.63;;;16.30;99.90;;;;;;5027506;28;20437;-77
2022/05/23 00:27:09;;;;;;;8.68;3.83;;;16.30;99.90;;;;;;5027290;28;20037;-76
2022/05/23 00:29:34;;;;;;;6.93;3.83;;;16.40;99.90;;;;;;5034119;28;20057;-78
2022/05/23 00:37:28;;;;;;;7.85;3.45;;;16.70;99.90;;;;;;5033303;28;20029;-77
2022/05/23 00:39:54;;;;;;;6.60;3.78;;;16.80;99.90;;;;;;5032691;28;20054;-76
2022/05/23 00:45:15;;;;;;;6.15;3.88;;;16.80;99.90;;;;;;5033187;28;20049;-78
2022/05/23 00:47:41;;;;;;;6.72;3.90;;;16.60;99.90;;;;;;5034890;28;20100;-75
2022/05/23 00:50:07;;;;;;;7.63;3.90;;;16.50;99.90;;;;;;5015140;28;20503;-76
2022/05/23 00:52:42;;;;;;;9.90;3.53;;;16.60;99.90;;;;;;5016328;28;20524;-76
2022/05/23 00:55:30;;;;;;;6.25;4.05;;;16.70;99.90;;;;;;5032959;28;20083;-78
2022/05/23 00:58:03;;;;;;;5.68;4.32;;;16.80;99.90;;;;;;5015562;28;20441;-78
2022/05/23 01:00:29;;;;;;;8.57;3.78;;;16.80;99.90;;;;;;5034814;28;20044;-78
2022/05/23 01:03:01;;;;;;;5.75;3.20;;;16.50;99.90;;;;;;5033625;28;20030;-78
2022/05/23 01:05:27;;;;;;;6.32;3.40;;;16.50;99.90;;;;;;5032417;28;20474;-77
2022/05/23 01:07:53;;;;;;;4.50;3.55;;;16.70;99.90;;;;;;5034092;28;20036;-78
2022/05/23 01:10:19;;;;;;;7.30;3.17;;;16.80;99.90;;;;;;5035659;28;20032;-78
2022/05/23 01:12:45;;;;;;;6.68;3.20;;;16.80;99.90;;;;;;5034613;28;20029;-77
2022/05/23 01:15:23;;;;;;;4.05;3.17;;;16.80;99.90;;;;;;5031011;28;20650;-77
2022/05/23 01:17:49;;;;;;;4.90;3.05;;;16.80;99.90;;;;;;5034492;28;20060;-75
2022/05/23 01:20:15;;;;;;;3.67;2.80;;;16.80;99.90;;;;;;5034109;28;20060;-77
2022/05/23 01:23:03;;;;;;;4.35;2.83;;;16.80;99.90;;;;;;5032408;28;20034;-78
2022/05/23 01:25:38;;;;;;;6.32;2.70;;;16.80;99.90;;;;;;5028740;28;20036;-77
2022/05/23 01:28:04;;;;;;;4.15;2.90;;;16.80;99.90;;;;;;5033328;28;20079;-78
2022/05/23 01:30:34;;;;;;;6.35;3.10;;;16.80;99.90;;;;;;5033077;28;20021;-78
2022/05/23 01:33:01;;;;;;;7.43;2.92;;;16.80;99.90;;;;;;5031554;28;20091;-77
2022/05/23 01:35:27;;;;;;;6.03;3.38;;;16.70;99.90;;;;;;5034726;28;20041;-78
2022/05/23 01:37:52;;;;;;;5.78;3.50;;;16.70;99.90;;;;;;5034353;28;20367;-77
2022/05/23 01:40:19;;;;;;;5.45;3.83;;;16.60;99.90;;;;;;5030612;28;21697;-77
2022/05/23 01:42:45;;;;;;;5.63;4.22;;;16.40;99.90;;;;;;5031284;28;20065;-77
2022/05/23 01:45:14;;;;;;;5.63;4.60;;;16.20;99.90;;;;;;5012951;28;20277;-78
2022/05/23 01:47:40;;;;;;;6.80;4.45;;;16.00;99.90;;;;;;5029699;28;20025;-75
2022/05/23 01:50:07;;;;;;;9.65;4.25;;;15.80;99.90;;;;;;5029588;28;20099;-77
2022/05/23 01:52:32;;;;;;;8.30;4.88;;;15.60;99.90;;;;;;5029719;28;20040;-77
2022/05/23 01:54:58;;;;;;;7.18;4.63;;;15.50;99.90;;;;;;5011482;28;20030;-76
2022/05/23 01:57:24;;;;;;;5.65;4.30;;;15.40;99.90;;;;;;5007149;28;20441;-78
2022/05/23 02:02:34;;;;;;;5.85;4.05;;;15.40;99.90;;;;;;5025364;28;20048;-78
2022/05/23 02:05:00;;;;;;;6.65;4.63;;;15.50;99.90;;;;;;5025702;28;20033;-77
2022/05/23 02:07:25;;;;;;;6.40;4.50;;;15.50;99.90;;;;;;5027060;28;20061;-77
2022/05/23 02:09:51;;;;;;;9.32;4.15;;;15.50;99.90;;;;;;5030056;28;20857;-76
2022/05/23 02:12:17;;;;;;;6.93;4.55;;;15.60;99.90;;;;;;5028745;28;20025;-76
2022/05/23 02:14:44;;;;;;;7.97;3.95;;;15.60;99.90;;;;;;5012388;28;20402;-77
2022/05/23 02:17:12;;;;;;;6.88;3.95;;;15.70;99.90;;;;;;5034518;28;20143;-77
2022/05/23 02:19:38;;;;;;;5.07;3.65;;;15.60;99.90;;;;;;5038887;28;20113;-77
2022/05/23 02:22:04;;;;;;;5.47;3.80;;;15.60;99.90;;;;;;5027211;28;20153;-77
2022/05/23 02:24:30;;;;;;;6.10;3.58;;;15.60;99.90;;;;;;5012574;28;20040;-79
2022/05/23 02:26:55;;;;;;;6.55;3.70;;;15.60;99.90;;;;;;5022471;28;20042;-76
2022/05/23 02:29:21;;;;;;;7.05;4.05;;;15.60;99.90;;;;;;5025337;28;20532;-75
2022/05/23 02:31:48;;;;;;;5.10;3.55;;;15.70;99.90;;;;;;5031052;28;20041;-74
2022/05/23 02:34:15;;;;;;;4.60;3.45;;;15.70;99.90;;;;;;5025084;28;20044;-78
2022/05/23 02:36:41;;;;;;;7.28;4.15;;;15.70;99.90;;;;;;5030147;28;20043;-78
2022/05/23 02:39:07;;;;;;;6.70;3.70;;;15.70;99.90;;;;;;5025580;28;20075;-76
2022/05/23 02:41:33;;;;;;;6.03;4.03;;;15.60;99.90;;;;;;5028984;28;20490;-78
2022/05/23 02:43:59;;;;;;;6.13;4.05;;;15.60;99.90;;;;;;5029008;28;20490;-77
2022/05/23 02:46:25;;;;;;;6.78;4.28;;;15.60;99.90;;;;;;5029160;28;20061;-75
2022/05/23 02:48:51;;;;;;;7.22;4.03;;;15.50;99.90;;;;;;5031334;28;20033;-77
2022/05/23 02:51:16;;;;;;;8.20;3.95;;;15.50;99.90;;;;;;5028877;28;20090;-76
2022/05/23 02:53:42;;;;;;;11.18;4.38;;;15.50;99.90;;;;;;5031130;28;20478;-75
2022/05/23 02:56:08;;;;;;;6.82;3.88;;;15.50;99.90;;;;;;5027014;28;20033;-77
2022/05/23 02:58:34;;;;;;;8.32;4.30;;;15.50;99.90;;;;;;5027803;28;20062;-76
2022/05/23 03:00:59;;;;;;;5.28;4.32;;;15.50;99.90;;;;;;5028049;28;20049;-76
2022/05/23 03:03:25;;;;;;;7.10;4.20;;;15.50;99.90;;;;;;5028549;28;20076;-77
2022/05/23 03:05:51;;;;;;;7.40;4.22;;;15.50;99.90;;;;;;5011806;28;20314;-71
2022/05/23 03:08:23;;;;;;;6.90;4.03;;;15.50;99.90;;;;;;5009501;28;20168;-75
2022/05/23 03:10:51;;;;;;;9.25;5.15;;;15.50;99.90;;;;;;5030605;28;20047;-75
2022/05/23 03:13:17;;;;;;;7.03;3.88;;;15.40;99.90;;;;;;5011994;28;20035;-76
2022/05/23 03:15:43;;;;;;;6.93;3.80;;;15.40;99.90;;;;;;5019956;28;20026;-74
2022/05/23 03:18:09;;;;;;;7.88;4.25;;;15.30;99.90;;;;;;5009977;28;20036;-76
2022/05/23 03:20:35;;;;;;;8.05;4.07;;;15.40;99.90;;;;;;5010722;28;20026;-75
2022/05/23 03:28:34;;;;;;;8.73;4.22;;;15.40;99.90;;;;;;5030397;28;20441;-76
2022/05/23 03:31:00;;;;;;;9.63;4.78;;;15.40;99.90;;;;;;5029653;28;20102;-74
2022/05/23 03:33:26;;;;;;;10.00;4.50;;;15.40;99.90;;;;;;5011513;28;20124;-75
2022/05/23 03:35:52;;;;;;;8.23;4.38;;;15.40;99.90;;;;;;5030252;28;20032;-73
2022/05/23 03:38:18;;;;;;;7.68;4.13;;;15.40;99.90;;;;;;5028980;28;20101;-76
2022/05/23 03:40:44;;;;;;;6.68;4.07;;;15.40;99.90;;;;;;5029841;28;20136;-73
2022/05/23 03:43:10;;;;;;;6.32;3.88;;;15.40;99.90;;;;;;5029267;28;20025;-74
2022/05/23 03:45:37;;;;;;;7.07;3.95;;;15.50;99.90;;;;;;5030040;28;20083;-75
2022/05/23 03:48:03;;;;;;;7.90;4.18;;;15.50;99.90;;;;;;5029353;28;20030;-72
2022/05/23 03:50:31;;;;;;;5.68;4.05;;;15.50;99.90;;;;;;5029232;28;20030;-74
2022/05/23 03:52:56;;;;;;;4.65;3.60;;;15.50;99.90;;;;;;5029898;28;20033;-73
2022/05/23 03:55:23;;;;;;;7.15;4.15;;;15.50;99.90;;;;;;5027826;28;20124;-75
2022/05/23 03:57:49;;;;;;;5.63;3.95;;;15.40;99.90;;;;;;5030196;28;20501;-75
2022/05/23 04:00:17;;;;;;;6.47;4.03;;;15.50;99.90;;;;;;5028829;28;20068;-76
2022/05/23 04:02:43;;;;;;;9.05;4.63;;;15.50;99.90;;;;;;5029381;28;20148;-75
2022/05/23 04:05:11;;;;;;;7.03;4.05;;;15.50;99.90;;;;;;5028657;28;20036;-75
2022/05/23 04:07:38;;;;;;;6.43;3.92;;;15.60;99.90;;;;;;5028627;28;20418;-75
2022/05/23 04:10:07;;;;;;;8.32;4.30;;;15.60;99.90;;;;;;5028873;28;20026;-74
2022/05/23 04:12:32;;;;;;;7.15;3.88;;;15.60;99.90;;;;;;5029758;28;20478;-74
2022/05/23 04:14:58;;;;;;;5.90;3.58;;;15.70;99.90;;;;;;5029610;28;20064;-73
2022/05/23 04:17:24;;;;;;;7.95;3.92;;;15.60;99.90;;;;;;5028865;28;20462;-73
2022/05/23 04:19:49;;;;;;;8.48;3.25;;;15.70;99.90;;;;;;5012254;28;20032;-75
2022/05/23 04:22:15;;;;;;;6.85;3.78;;;15.80;99.90;;;;;;5028811;28;20068;-74
2022/05/23 04:24:41;;;;;;;4.88;3.28;;;15.90;99.90;;;;;;5026795;28;20040;-73
2022/05/23 04:27:07;;;;;;;7.07;3.88;;;16.00;99.90;;;;;;5025599;28;20037;-74
2022/05/23 04:29:32;;;;;;;9.05;4.05;;;16.00;99.90;;;;;;5028228;28;20103;-75
2022/05/23 04:31:58;;;;;;;10.63;4.30;;;16.00;99.90;;;;;;5027337;28;20521;-74
2022/05/23 04:37:08;;;;;;;4.72;3.08;;;16.20;99.90;;;;;;5024392;28;20099;-74
2022/05/23 04:39:34;;;;;;;7.82;3.50;;;16.30;99.90;;;;;;5021969;28;20046;-73
2022/05/23 04:42:03;;;;;;;5.32;4.05;;;16.40;99.90;;;;;;5028026;28;20109;-74
2022/05/23 04:44:29;;;;;;;6.63;3.60;;;16.40;99.90;;;;;;5027758;28;20450;-75
2022/05/23 04:49:42;;;;;;;7.45;3.40;;;16.60;99.90;;;;;;5025058;28;20517;-76
2022/05/23 04:52:12;;;;;;;5.30;3.47;;;16.60;99.90;;;;;;5017311;28;20443;-73
2022/05/23 04:54:39;;;;;;;6.80;3.50;;;16.70;99.90;;;;;;5029029;28;20085;-74
2022/05/23 04:57:06;;;;;;;8.20;3.65;;;16.80;99.90;;;;;;5027747;28;20033;-73
2022/05/23 04:59:33;;;;;;;5.45;3.45;;;16.90;99.90;;;;;;5027480;28;20107;-74
2022/05/23 05:02:01;;;;;;;8.20;3.95;;;16.90;99.90;;;;;;5028976;28;20029;-76
2022/05/23 05:04:27;;;;;;;9.27;3.63;;;16.80;99.90;;;;;;5027957;28;20029;-74
2022/05/23 05:06:53;;;;;;;10.70;3.60;;;16.80;99.90;;;;;;5028566;28;20072;-75
2022/05/23 05:09:19;;;;;;;4.93;3.40;;;16.70;99.90;;;;;;5028034;28;20061;-75
2022/05/23 05:11:44;;;;;;;4.93;3.47;;;16.60;99.90;;;;;;5029334;28;20100;-74
2022/05/23 05:14:10;;;;;;;5.82;3.67;;;16.60;99.90;;;;;;5027687;28;20044;-75
2022/05/23 05:16:36;;;;;;;8.45;4.93;;;16.30;99.90;;;;;;5030588;28;20035;-74
2022/05/23 05:19:02;;;;;;;6.15;4.47;;;16.20;99.90;;;;;;5031056;28;20480;-74
2022/05/23 05:21:28;;;;;;;12.00;4.68;;;16.00;99.90;;;;;;5031881;28;20063;-75
2022/05/23 05:23:54;;;;;;;7.95;5.07;;;15.90;99.90;;;;;;5030982;28;20455;-74
2022/05/23 05:26:20;;;;;;;9.63;4.88;;;15.70;99.90;;;;;;5031861;28;20037;-76
2022/05/23 05:28:45;;;;;;;10.38;4.95;;;15.70;99.90;;;;;;5030431;28;20040;-74
2022/05/23 05:31:27;;;;;;;16.90;5.20;;;15.60;99.90;;;;;;5030807;28;20794;-72
2022/05/23 05:34:06;;;;;;;8.10;5.10;;;15.50;99.90;;;;;;5031403;28;20394;-73
2022/05/23 05:36:37;;;;;;;7.88;5.20;;;15.40;99.90;;;;;;5031251;28;20040;-73
2022/05/23 05:39:05;;;;;;;8.02;5.65;;;15.30;99.90;;;;;;5032644;28;20553;-74
2022/05/23 05:41:48;;;;;;;10.50;5.18;;;15.20;99.90;;;;;;5031053;28;20045;-73
2022/05/23 05:44:19;;;;;;;16.17;6.05;;;15.10;99.90;;;;;;5030010;28;20064;-73
2022/05/23 05:46:48;;;;;;;11.60;5.57;;;15.10;99.90;;;;;;5032221;28;20120;-73
2022/05/23 05:49:21;;;;;;;11.80;6.43;;;15.00;99.90;;;;;;5028154;28;20025;-72
2022/05/23 05:51:49;;;;;;;13.48;6.35;;;14.90;99.90;;;;;;5032248;28;20021;-73
2022/05/23 05:54:21;;;;;;;10.10;6.10;;;14.60;99.90;;;;;;5030766;28;20044;-72
2022/05/23 05:56:48;;;;;;;11.65;5.88;;;14.60;99.90;;;;;;5030657;28;20115;-72
2022/05/23 05:59:14;;;;;;;9.88;5.60;;;14.60;99.90;;;;;;5029304;28;20544;-72
2022/05/23 06:01:40;;;;;;;13.10;6.57;;;14.60;99.90;;;;;;5030821;28;20033;-71
2022/05/23 06:04:06;;;;;;;17.45;6.90;;;14.50;99.90;;;;;;5028368;28;20079;-72
2022/05/23 06:12:00;;;;;;;15.18;6.88;;;14.50;99.90;;;;;;5031128;28;20044;-72
2022/05/23 06:14:26;;;;;;;12.35;6.30;;;14.50;99.90;;;;;;5027693;28;20166;-74
2022/05/23 06:16:52;;;;;;;10.57;7.32;;;14.40;99.90;;;;;;5029733;28;20075;-72
2022/05/23 06:19:19;;;;;;;10.52;6.45;;;14.40;99.90;;;;;;5028944;28;20036;-74
2022/05/23 06:21:45;;;;;;;11.70;6.82;;;14.40;99.90;;;;;;5031443;28;20060;-73
2022/05/23 06:24:12;;;;;;;10.77;6.70;;;14.40;99.90;;;;;;5028740;28;20065;-72
2022/05/23 06:26:38;;;;;;;13.32;6.60;;;14.50;99.90;;;;;;5028789;28;20083;-74
2022/05/23 06:29:04;;;;;;;10.55;6.28;;;14.50;99.90;;;;;;5029645;28;20108;-73
2022/05/23 06:31:29;;;;;;;15.57;6.40;;;14.60;99.90;;;;;;5021326;28;20128;-73
2022/05/23 06:33:55;;;;;;;11.60;6.70;;;14.70;99.90;;;;;;5030189;28;20401;-74
2022/05/23 06:36:21;;;;;;;12.50;7.03;;;14.70;99.90;;;;;;5028581;28;20045;-74
2022/05/23 06:38:48;;;;;;;12.40;7.00;;;14.70;99.90;;;;;;5030262;28;20121;-73
2022/05/23 06:41:14;;;;;;;11.98;7.20;;;14.70;99.90;;;;;;5026658;28;20168;-73
2022/05/23 06:43:42;;;;;;;13.13;7.30;;;14.80;99.90;;;;;;5029664;28;20037;-74
2022/05/23 06:46:09;;;;;;;17.55;7.25;;;14.90;99.90;;;;;;5030222;28;20065;-75
2022/05/23 06:48:36;;;;;;;14.57;7.32;;;15.10;99.90;;;;;;5029743;28;20029;-72
2022/05/23 06:51:02;;;;;;;10.80;6.65;;;15.10;99.90;;;;;;5015762;28;20036;-74
2022/05/23 06:53:29;;;;;;;10.85;6.97;;;15.20;99.90;;;;;;5030154;28;20041;-74
2022/05/23 06:55:55;;;;;;;8.38;6.13;;;15.30;99.90;;;;;;5028265;28;20753;-74
2022/05/23 06:58:21;;;;;;;16.15;7.10;;;15.60;99.90;;;;;;5028315;28;20041;-73
2022/05/23 07:00:49;;;;;;;10.35;6.25;;;15.80;99.90;;;;;;5028833;28;20449;-74
2022/05/23 07:03:15;;;;;;;8.25;5.95;;;16.00;99.90;;;;;;5029203;28;20038;-74
2022/05/23 07:13:55;;;;;;;9.85;5.82;;;16.80;99.90;;;;;;5029230;28;20048;-75
2022/05/23 07:16:22;;;;;;;8.73;5.82;;;17.10;99.90;;;;;;5027137;28;20048;-75
2022/05/23 07:18:48;;;;;;;9.13;5.30;;;17.20;99.90;;;;;;5027918;28;20081;-75
2022/05/23 07:21:14;;;;;;;9.25;5.20;;;17.40;99.90;;;;;;5018492;28;20053;-72
2022/05/23 07:23:40;;;;;;;8.30;4.90;;;17.70;99.90;;;;;;5029495;28;20028;-74
2022/05/23 07:26:09;;;;;;;10.40;5.53;;;18.10;99.90;;;;;;5029300;28;20398;-74
2022/05/23 07:28:35;;;;;;;9.60;4.68;;;18.50;99.90;;;;;;5028588;28;20029;-74
2022/05/23 07:31:02;;;;;;;9.00;4.50;;;18.70;99.90;;;;;;5027212;28;20391;-76
2022/05/23 07:33:28;;;;;;;13.98;5.07;;;18.80;99.90;;;;;;5029178;28;20508;-77
2022/05/23 07:35:59;;;;;;;12.13;4.85;;;18.80;99.90;;;;;;5028289;28;20036;-74
2022/05/23 07:38:25;;;;;;;7.65;4.43;;;18.80;99.90;;;;;;5028624;28;20037;-75
2022/05/23 07:40:52;;;;;;;6.75;4.65;;;18.80;99.90;;;;;;5027136;28;20448;-76
2022/05/23 07:43:19;;;;;;;6.32;4.50;;;18.80;99.90;;;;;;5028268;28;20087;-75
2022/05/23 07:45:45;;;;;;;10.02;4.43;;;18.90;99.90;;;;;;5028458;28;20029;-76
2022/05/23 07:48:11;;;;;;;9.38;3.90;;;19.10;99.90;;;;;;5029084;28;20057;-76
2022/05/23 07:50:37;;;;;;;5.72;3.95;;;19.30;99.90;;;;;;5026928;28;20056;-76
2022/05/23 08:01:17;;;;;;;5.72;3.35;;;18.90;99.90;;;;;;5027382;28;20091;-75
2022/05/23 08:03:45;;;;;;;6.55;3.38;;;18.80;99.90;;;;;;5027492;28;20033;-76
2022/05/23 08:06:10;;;;;;;10.60;3.85;;;18.70;99.90;;;;;;5010996;28;20025;-76
2022/05/23 08:08:36;;;;;;;9.80;3.20;;;18.70;99.90;;;;;;5010637;28;20045;-75
2022/05/23 08:11:05;;;;;;;6.25;3.28;;;18.70;99.90;;;;;;5028100;28;20028;-75
2022/05/23 08:13:32;;;;;;;6.32;3.50;;;18.70;99.90;;;;;;5027438;28;20034;-79
2022/05/23 08:15:57;;;;;;;8.75;4.10;;;18.70;99.90;;;;;;5026832;28;20030;-75
2022/05/23 08:18:23;;;;;;;5.88;2.95;;;18.80;99.90;;;;;;5028981;28;20032;-76
2022/05/23 08:20:49;;;;;;;6.50;3.10;;;19.00;99.90;;;;;;5027819;28;20017;-76
2022/05/23 08:23:15;;;;;;;9.38;3.20;;;19.10;99.90;;;;;;5028842;28;20037;-73
2022/05/23 08:25:41;;;;;;;6.38;3.38;;;19.30;99.90;;;;;;5026854;28;20026;-76
2022/05/23 08:28:06;;;;;;;8.98;3.55;;;19.60;99.90;;;;;;5023259;28;20447;-77
2022/05/23 08:30:32;;;;;;;6.95;3.10;;;19.50;99.90;;;;;;5027766;28;20474;-76
2022/05/23 08:32:58;;;;;;;5.38;2.80;;;19.40;99.90;;;;;;5028435;28;20034;-74
2022/05/23 08:35:24;;;;;;;7.63;3.00;;;19.30;99.90;;;;;;5026806;28;20196;-79
2022/05/23 08:37:52;;;;;;;4.57;2.90;;;19.30;99.90;;;;;;5029532;28;20025;-78
2022/05/23 08:40:18;;;;;;;6.80;3.00;;;19.30;99.90;;;;;;5026675;28;20049;-73
2022/05/23 08:42:56;;;;;;;7.63;2.85;;;19.30;99.90;;;;;;5027632;28;20032;-77
2022/05/23 08:45:35;;;;;;;4.50;2.67;;;19.40;99.90;;;;;;5027969;28;20041;-77
2022/05/23 08:48:03;;;;;;;6.72;3.10;;;19.40;99.90;;;;;;5026485;28;20064;-75
2022/05/23 08:50:29;;;;;;;4.97;2.92;;;19.50;99.90;;;;;;5029179;28;20378;-76
2022/05/23 08:53:42;;;;;;;7.50;3.10;;;19.60;99.90;;;;;;5015011;28;20032;-76
2022/05/23 08:56:39;;;;;;;7.25;3.08;;;20.00;99.90;;;;;;4955992;28;20039;-77
2022/05/23 08:59:19;;;;;;;5.78;3.40;;;20.20;99.90;;;;;;4964084;28;20043;-78
2022/05/23 09:01:51;;;;;;;6.65;2.90;;;20.10;99.90;;;;;;4943637;29;20039;-77
2022/05/23 09:04:44;;;;;;;5.20;3.40;;;20.00;99.90;;;;;;4954847;28;20042;-72
2022/05/23 09:07:38;;;;;;;6.72;3.13;;;19.80;99.90;;;;;;4951883;28;20050;-77
2022/05/23 09:10:10;;;;;;;9.85;3.42;;;19.80;99.90;;;;;;4952162;28;20040;-77
2022/05/23 09:12:35;;;;;;;5.95;3.22;;;19.70;99.90;;;;;;4967427;28;20038;-78
2022/05/23 09:15:02;;;;;;;8.82;3.30;;;19.60;99.90;;;;;;4965314;28;20053;-77
2022/05/23 09:17:35;;;;;;;10.90;3.45;;;19.60;99.90;;;;;;4965421;28;20074;-76
2022/05/23 09:20:06;;;;;;;6.72;3.20;;;19.50;99.90;;;;;;4952922;28;20051;-77
2022/05/23 09:22:43;;;;;;;4.57;2.75;;;19.50;99.90;;;;;;4951218;29;20031;-77
2022/05/23 09:25:12;;;;;;;5.47;3.00;;;19.70;99.90;;;;;;4959151;28;20058;-77
2022/05/23 09:27:40;;;;;;;4.85;2.90;;;19.90;99.90;;;;;;5003496;28;20053;-75
2022/05/23 09:30:15;;;;;;;6.47;3.03;;;19.90;99.90;;;;;;5028998;28;20394;-76
2022/05/23 09:32:53;;;;;;;6.57;3.35;;;19.90;99.90;;;;;;5026622;28;20025;-78
2022/05/23 09:35:23;;;;;;;9.95;3.83;;;19.90;99.90;;;;;;5031371;28;20056;-73
2022/05/23 09:38:11;;;;;;;7.35;3.33;;;19.80;99.90;;;;;;5030736;28;20025;-76
2022/05/23 09:40:38;;;;;;;7.38;3.72;;;19.70;99.90;;;;;;5030036;28;20485;-76
2022/05/23 09:49:21;;;;;;;7.55;4.05;;;19.50;99.90;;;;;;5030795;28;20080;-76
2022/05/23 09:51:59;;;;;;;6.05;3.90;;;19.60;99.90;;;;;;5031131;28;20040;-78
2022/05/23 09:54:28;;;;;;;6.75;3.83;;;19.70;99.90;;;;;;5030361;28;20074;-77
2022/05/23 09:56:56;;;;;;;7.30;3.80;;;19.90;99.90;;;;;;5025694;28;20076;-77
2022/05/23 10:00:03;;;;;;;11.20;4.43;;;20.00;99.90;;;;;;5029937;28;20505;-73
2022/05/23 10:02:39;;;;;;;9.75;4.07;;;20.20;99.90;;;;;;5026991;28;20017;-75
2022/05/23 10:05:25;;;;;;;10.40;4.13;;;20.20;99.90;;;;;;5019699;28;20087;-77
2022/05/23 10:07:55;;;;;;;8.70;4.28;;;20.20;99.90;;;;;;5027184;28;20554;-76
2022/05/23 10:10:30;;;;;;;8.75;4.63;;;20.10;99.90;;;;;;5029890;28;20049;-75
2022/05/23 10:13:14;;;;;;;10.10;4.25;;;20.30;99.90;;;;;;5024135;28;20043;-77
2022/05/23 10:15:44;;;;;;;8.35;4.30;;;20.50;99.90;;;;;;5028562;28;20053;-74
2022/05/23 10:18:16;;;;;;;;;;;20.90;99.90;;;;;;5030109;28;20021;-77
2022/05/23 10:20:43;;;;;;;8.80;3.90;;;21.70;99.90;;;;;;5028391;28;19913;-74
2022/05/23 10:23:15;;;;;;;10.05;4.70;;;22.20;99.90;;;;;;5030442;28;20033;-78
2022/05/23 10:26:05;;;;;;;6.90;3.97;;;22.50;99.90;;;;;;5027093;28;20885;-76
2022/05/23 10:28:58;;;;;;;7.20;3.92;;;22.70;99.90;;;;;;5027891;28;20513;-76
2022/05/23 10:31:31;;;;;;;7.80;4.15;;;22.60;99.90;;;;;;5027921;28;20064;-73
2022/05/23 10:34:25;;;;;;;9.05;4.40;;;22.40;99.90;;;;;;5031198;28;20477;-76
2022/05/23 10:36:53;;;;;;;13.00;4.72;;;22.50;99.90;;;;;;5020281;28;20041;-76
2022/05/23 10:42:12;;;;;;;7.95;4.05;;;22.50;99.90;;;;;;5025657;28;20091;-75
2022/05/23 10:45:00;;;;;;;8.55;4.40;;;22.40;99.90;;;;;;5030324;28;20564;-77
2022/05/23 10:47:51;;;;;;;10.30;4.40;;;22.40;99.90;;;;;;5025926;28;20063;-73
2022/05/23 10:50:54;;;;;;;7.45;4.53;;;22.60;99.90;;;;;;5027474;28;20025;-77
2022/05/23 10:53:27;;;;;;;8.25;4.03;;;22.40;99.90;;;;;;5029402;28;20379;-78
2022/05/23 10:56:05;;;;;;;8.85;4.45;;;22.40;99.90;;;;;;5030153;28;20033;-75
2022/05/23 10:58:51;;;;;;;10.73;4.43;;;22.20;99.90;;;;;;5028900;28;20030;-77
2022/05/23 11:01:36;;;;;;;11.25;5.07;;;22.10;99.90;;;;;;5030048;28;20079;-76
2022/05/23 11:04:35;;;;;;;10.32;4.32;;;22.00;99.90;;;;;;5030960;28;20037;-78
2022/05/23 11:07:12;;;;;;;12.98;5.15;;;21.90;99.90;;;;;;5031234;28;20037;-75
2022/05/23 11:10:01;;;;;;;9.70;4.50;;;21.60;99.90;;;;;;5011802;28;20041;-77
2022/05/23 11:12:43;;;;;;;9.95;5.03;;;21.50;99.90;;;;;;5030074;28;20034;-76
2022/05/23 11:15:34;;;;;;;8.73;5.13;;;21.40;99.90;;;;;;5012198;28;20017;-76
2022/05/23 11:18:13;;;;;;;8.15;4.80;;;21.40;99.90;;;;;;5030665;28;20033;-79
2022/05/23 11:20:40;;;;;;;12.20;5.80;;;21.30;99.90;;;;;;5029861;28;20053;-77
2022/05/23 11:23:30;;;;;;;11.13;4.85;;;21.30;99.90;;;;;;5012548;28;20380;-75
2022/05/23 11:26:28;;;;;;;10.82;5.50;;;21.10;99.90;;;;;;5028728;28;20075;-76
2022/05/23 11:34:42;;;;;;;13.50;6.28;;;20.30;99.90;;;;;;5029742;28;20076;-75
2022/05/23 11:39:59;;;;;;;12.80;7.05;;;20.20;99.90;;;;;;5028285;28;20071;-76
2022/05/23 11:42:27;;;;;;;15.20;7.68;;;20.20;99.90;;;;;;5030223;28;20506;-76
2022/05/23 11:47:58;;;;;;;16.80;7.68;;;20.10;99.90;;;;;;5026850;28;20045;-76
2022/05/23 11:50:30;;;;;;;12.32;7.85;;;20.00;99.90;;;;;;5025219;28;20056;-77
2022/05/23 11:53:19;;;;;;;12.85;7.40;;;20.00;99.90;;;;;;4990656;28;20033;-76
2022/05/23 11:55:51;;;;;;;13.68;8.13;;;20.00;99.90;;;;;;5028688;28;20029;-76
2022/05/23 11:58:36;;;;;;;15.07;8.38;;;19.90;99.90;;;;;;5028801;28;20033;-77
2022/05/23 12:01:18;;;;;;;16.02;8.60;;;19.80;99.90;;;;;;5007028;28;20029;-76
2022/05/23 12:03:50;;;;;;;16.75;8.75;;;19.70;99.90;;;;;;5028433;28;20040;-76
2022/05/23 12:06:17;;;;;;;13.45;8.32;;;19.60;99.90;;;;;;5029718;28;20041;-75
2022/05/23 12:09:01;;;;;;;13.40;8.77;;;19.50;99.90;;;;;;5027778;28;20037;-75
2022/05/23 12:11:30;;;;;;;18.58;9.40;;;19.40;99.90;;;;;;5029627;28;20052;-76
2022/05/23 12:14:13;;;;;;;15.10;8.48;;;19.20;99.90;;;;;;5029610;28;20040;-76
2022/05/23 12:16:43;;;;;;;17.10;7.72;;;19.00;99.90;;;;;;5027959;28;20068;-74
2022/05/23 12:19:08;;;;;;;9.30;3.40;;;18.70;99.90;;;;;;5029754;28;20029;-75
2022/05/23 12:21:37;;;;;;;6.25;2.92;;;18.50;99.90;;;;;;5010398;28;20034;-75
2022/05/23 12:24:21;;;;;;;11.75;3.03;;;18.10;99.90;;;;;;5030312;28;20119;-80
2022/05/23 12:26:51;;;;;;;5.18;2.53;;;17.80;99.90;;;;;;5026814;28;20087;-78
2022/05/23 12:29:37;;;;;;;5.97;2.50;;;17.70;99.90;;;;;;5028180;28;20109;-78
2022/05/23 12:32:05;;;;;;;15.48;3.25;;;17.50;99.90;;;;;;5024967;28;20280;-76
2022/05/23 12:34:33;;;;;;;11.05;3.00;;;17.40;99.90;;;;;;5027985;28;20121;-74
2022/05/23 12:37:02;;;;;;;7.55;2.55;;;17.40;99.90;;;;;;5020186;28;20053;-78
2022/05/23 12:39:52;;;;;;;10.05;2.97;;;17.40;99.90;;;;;;5029155;28;20120;-78
2022/05/23 12:42:46;;;;;;;7.28;2.70;;;17.50;99.90;;;;;;5026752;28;20037;-77
2022/05/23 12:45:37;;;;;;;9.15;2.53;;;17.50;99.90;;;;;;5025813;28;20044;-76
2022/05/23 12:48:18;;;;;;;;;;;17.60;99.90;;;;;;5011076;28;20083;-78
2022/05/23 12:50:59;;;;;;;;;;;17.60;99.90;;;;;;5029001;28;20396;-77
2022/05/23 12:53:33;;;;;;;10.52;2.88;;;17.70;99.90;;;;;;5028719;28;20327;-76
2022/05/23 12:56:29;;;;;;;9.90;3.13;;;17.70;99.90;;;;;;5029350;28;20029;-79
2022/05/23 12:59:20;;;;;;;9.60;3.10;;;17.60;99.90;;;;;;5006285;28;20038;-78
2022/05/23 13:01:50;;;;;;;8.30;3.05;;;17.50;99.90;;;;;;5027046;28;20021;-79
2022/05/23 13:04:22;;;;;;;7.20;3.55;;;17.40;99.90;;;;;;5027501;28;20061;-79
2022/05/23 13:07:10;;;;;;;10.57;3.42;;;17.40;99.90;;;;;;5027083;28;20037;-79
2022/05/23 13:09:52;;;;;;;7.47;4.07;;;17.40;99.90;;;;;;5015988;28;20393;-79
2022/05/23 13:12:23;;;;;;;6.38;3.33;;;17.50;99.90;;;;;;5013342;28;20492;-79
2022/05/23 13:14:56;;;;;;;;;;;17.60;99.90;;;;;;5026755;28;20037;-82
2022/05/23 13:17:43;;;;;;;7.38;3.85;;;17.70;99.90;;;;;;5009134;28;19912;-80
2022/05/23 13:23:17;;;;;;;7.25;2.80;;;17.70;99.90;;;;;;5026248;28;20088;-81
2022/05/23 13:25:44;;;;;;;9.68;3.10;;;18.00;99.90;;;;;;5026503;28;20037;-78
2022/05/23 13:28:12;;;;;;;8.90;3.22;;;18.30;99.90;;;;;;5028764;28;20033;-82
2022/05/23 13:30:43;;;;;;;7.70;3.17;;;18.50;99.90;;;;;;5026286;28;20040;-77
2022/05/23 13:33:20;;;;;;;7.85;2.53;;;18.60;99.90;;;;;;5023108;28;20079;-75
2022/05/23 13:35:53;;;;;;;5.57;2.70;;;18.70;99.90;;;;;;5026091;28;20028;-76
2022/05/23 13:38:28;;;;;;;6.82;2.95;;;18.90;99.90;;;;;;5031578;28;20033;-69
2022/05/23 13:40:56;;;;;;;6.75;3.20;;;19.10;99.90;;;;;;5029941;28;20060;-64
2022/05/23 13:43:42;;;;;;;7.47;3.00;;;19.10;99.90;;;;;;5031287;28;20137;-63
2022/05/23 13:46:32;;;;;;;9.68;2.53;;;19.00;99.90;;;;;;5030560;28;20084;-64
2022/05/23 13:49:07;;;;;;;10.80;2.43;;;19.30;99.90;;;;;;5026302;28;20042;-63
2022/05/23 13:52:08;;;;;;;6.38;2.75;;;19.40;99.90;;;;;;5024504;28;20048;-64
2022/05/23 13:54:40;;;;;;;10.05;2.47;;;19.60;99.90;;;;;;4964551;28;20033;-63
2022/05/23 13:57:18;;;;;;;5.93;2.63;;;19.90;99.90;;;;;;5026557;28;20498;-63
2022/05/23 13:59:54;;;;;;;9.55;2.70;;;20.30;99.90;;;;;;5029745;28;20026;-64
2022/05/23 14:02:24;;;;;;;15.85;3.42;;;20.60;99.90;;;;;;5030904;28;20419;-65
2022/05/23 14:04:53;;;;;;;11.77;5.55;;;20.80;99.90;;;;;;5028057;28;20147;-63
2022/05/23 14:07:23;;;;;;;10.27;3.20;;;21.00;99.90;;;;;;5029697;28;20033;-64
2022/05/23 14:09:51;;;;;;;;;;;21.40;99.90;;;;;;5028173;28;20489;-64
2022/05/23 14:12:26;;;;;;;8.40;2.60;;;21.70;99.90;;;;;;5027090;28;20011;-63